Time;durP1;ratioP1;P1;durP2;ratioP2;P2;SDS_P1;SDS_P2;PMS_P1;PMS_P2;Temp;Humidity;BMP_temperature;BMP_pressure;BME280_temperature;BME280_humidity;BME280_pressure;Samples;Min_cycle;Max_cycle;Signal;HPM_P1;HPM_P2
2022/03/21 00:00:59;;;;;;;24.25;18.55;;;;;;;;;;10198613;28;20068;-54
2022/03/21 00:05:59;;;;;;;27.02;18.75;;;;;;;;;;10198239;28;20042;-54
2022/03/21 00:10:58;;;;;;;29.98;19.20;;;;;;;;;;10197744;28;20461;-56
2022/03/21 00:15:56;;;;;;;27.13;19.05;;;;;;;;;;10198092;28;20034;-54
2022/03/21 00:20:56;;;;;;;33.65;22.23;;;;;;;;;;10193370;28;20073;-54
2022/03/21 00:25:56;;;;;;;29.83;21.60;;;;;;;;;;10186049;28;20084;-55
2022/03/21 00:30:55;;;;;;;25.88;19.25;;;;;;;;;;10204115;28;20533;-55
2022/03/21 00:35:54;;;;;;;26.85;20.55;;;;;;;;;;10193611;28;20077;-56
2022/03/21 00:40:52;;;;;;;31.42;22.70;;;;;;;;;;10196540;28;20061;-53
2022/03/21 00:45:52;;;;;;;31.65;22.05;;;;;;;;;;10196929;28;20478;-55
2022/03/21 00:50:51;;;;;;;26.17;19.55;;;;;;;;;;10195729;28;20087;-53
2022/03/21 00:55:50;;;;;;;30.55;20.05;;;;;;;;;;10196474;28;20070;-51
2022/03/21 01:00:48;;;;;;;32.95;20.90;;;;;;;;;;10196134;28;20474;-54
2022/03/21 01:05:48;;;;;;;30.95;19.40;;;;;;;;;;10187614;28;20065;-51
2022/03/21 01:10:46;;;;;;;52.33;34.97;;;;;;;;;;10192181;28;20080;-55
2022/03/21 01:15:44;;;;;;;30.58;23.40;;;;;;;;;;10192751;28;20079;-55
2022/03/21 01:20:43;;;;;;;29.67;19.90;;;;;;;;;;10195314;28;20077;-51
2022/03/21 01:25:42;;;;;;;26.55;18.80;;;;;;;;;;10194181;28;20506;-54
2022/03/21 01:30:41;;;;;;;25.10;17.70;;;;;;;;;;10193307;28;20081;-53
2022/03/21 01:35:39;;;;;;;27.63;16.63;;;;;;;;;;10192249;28;20065;-54
2022/03/21 01:40:37;;;;;;;32.60;19.13;;;;;;;;;;10193270;28;20474;-55
2022/03/21 01:45:37;;;;;;;29.80;18.30;;;;;;;;;;10194442;28;20474;-51
2022/03/21 01:50:37;;;;;;;29.60;19.75;;;;;;;;;;10189847;28;20081;-54
2022/03/21 01:55:48;;;;;;;25.90;20.02;;;;;;;;;;10192640;28;20096;-55
2022/03/21 02:00:47;;;;;;;23.73;18.40;;;;;;;;;;10186765;28;20070;-54
2022/03/21 02:05:47;;;;;;;28.55;17.35;;;;;;;;;;10193592;28;20457;-54
2022/03/21 02:10:50;;;;;;;24.50;15.63;;;;;;;;;;10193605;28;20096;-53
2022/03/21 02:15:50;;;;;;;26.20;18.58;;;;;;;;;;10177782;28;20073;-56
2022/03/21 02:20:49;;;;;;;24.60;18.88;;;;;;;;;;10191501;28;20069;-54
2022/03/21 02:25:49;;;;;;;28.00;17.55;;;;;;;;;;10193012;28;20096;-54
2022/03/21 02:30:49;;;;;;;25.52;19.00;;;;;;;;;;10192171;28;20065;-52
2022/03/21 02:35:47;;;;;;;35.08;19.80;;;;;;;;;;10192120;28;20077;-55
2022/03/21 02:40:48;;;;;;;32.47;21.25;;;;;;;;;;10193036;28;20084;-50
2022/03/21 02:45:46;;;;;;;30.40;21.52;;;;;;;;;;10186096;28;20476;-52
2022/03/21 02:50:50;;;;;;;34.22;22.17;;;;;;;;;;10191763;28;20088;-55
2022/03/21 02:55:53;;;;;;;30.70;19.50;;;;;;;;;;10192189;28;20081;-54
2022/03/21 03:00:52;;;;;;;26.58;19.30;;;;;;;;;;10188887;28;20470;-51
2022/03/21 03:05:50;;;;;;;31.15;19.73;;;;;;;;;;10189661;28;20073;-53
2022/03/21 03:10:50;;;;;;;27.98;17.73;;;;;;;;;;10191985;28;20110;-54
2022/03/21 03:15:48;;;;;;;23.33;17.13;;;;;;;;;;10192046;28;20561;-53
2022/03/21 03:20:48;;;;;;;338.27;134.98;;;;;;;;;;10189827;28;20365;-50
2022/03/21 03:25:47;;;;;;;35.00;25.30;;;;;;;;;;10187798;28;20093;-50
2022/03/21 03:30:47;;;;;;;34.42;25.90;;;;;;;;;;10188128;28;20074;-52
2022/03/21 03:35:45;;;;;;;23.58;17.63;;;;;;;;;;10185479;28;20484;-54
2022/03/21 03:40:44;;;;;;;31.08;18.27;;;;;;;;;;10188888;28;20071;-55
2022/03/21 03:45:42;;;;;;;21.48;15.68;;;;;;;;;;10183407;28;20078;-54
2022/03/21 03:50:42;;;;;;;42.42;26.00;;;;;;;;;;10197908;28;20410;-53
2022/03/21 03:55:40;;;;;;;25.02;19.17;;;;;;;;;;10198980;28;20065;-55
2022/03/21 04:00:39;;;;;;;29.33;23.85;;;;;;;;;;10190943;28;20493;-55
2022/03/21 04:05:37;;;;;;;30.95;23.20;;;;;;;;;;10195923;28;20069;-55
2022/03/21 04:10:37;;;;;;;23.60;16.23;;;;;;;;;;10196001;28;20184;-55
2022/03/21 04:15:35;;;;;;;24.20;15.95;;;;;;;;;;10197098;28;20096;-55
2022/03/21 04:20:36;;;;;;;33.42;25.65;;;;;;;;;;10197541;28;20486;-55
2022/03/21 04:25:35;;;;;;;21.35;14.77;;;;;;;;;;10186859;28;20077;-55
2022/03/21 04:30:34;;;;;;;29.02;17.95;;;;;;;;;;10197100;28;20081;-55
2022/03/21 04:35:33;;;;;;;27.70;19.02;;;;;;;;;;10197395;28;20073;-53
2022/03/21 04:40:31;;;;;;;46.67;28.77;;;;;;;;;;10186669;28;20066;-56
2022/03/21 04:45:29;;;;;;;42.63;30.15;;;;;;;;;;10192369;28;20074;-56
2022/03/21 04:50:29;;;;;;;51.17;31.15;;;;;;;;;;10191231;28;20066;-55
2022/03/21 04:55:28;;;;;;;58.53;35.83;;;;;;;;;;10168280;28;20480;-52
2022/03/21 05:00:26;;;;;;;60.67;34.28;;;;;;;;;;10189170;28;20069;-53
2022/03/21 05:05:25;;;;;;;60.03;33.60;;;;;;;;;;10191027;28;20093;-52
2022/03/21 05:10:25;;;;;;;56.35;34.63;;;;;;;;;;10187557;28;20463;-53
2022/03/21 05:15:23;;;;;;;50.90;28.65;;;;;;;;;;10188997;28;20070;-53
2022/03/21 05:20:22;;;;;;;38.58;26.05;;;;;;;;;;10184163;28;20076;-54
2022/03/21 05:36:02;;;;;;;43.80;26.43;;;;;;;;;;10149382;28;20070;-55
2022/03/21 05:41:01;;;;;;;48.97;26.08;;;;;;;;;;10166898;28;20081;-54
2022/03/21 05:46:01;;;;;;;39.45;22.85;;;;;;;;;;10181592;28;20502;-54
2022/03/21 05:50:59;;;;;;;30.30;19.63;;;;;;;;;;10183344;28;20092;-56
2022/03/21 05:56:00;;;;;;;94.30;46.35;;;;;;;;;;10189447;28;20061;-55
2022/03/21 06:00:58;;;;;;;109.65;60.63;;;;;;;;;;10189486;28;20085;-51
2022/03/21 06:05:59;;;;;;;99.43;54.72;;;;;;;;;;10187806;28;20062;-55
2022/03/21 06:11:04;;;;;;;59.45;32.90;;;;;;;;;;10189551;28;20073;-56
2022/03/21 06:16:03;;;;;;;68.93;41.67;;;;;;;;;;10186380;28;20130;-55
2022/03/21 06:21:03;;;;;;;50.90;33.47;;;;;;;;;;10185782;28;20069;-54
2022/03/21 06:26:03;;;;;;;49.95;32.63;;;;;;;;;;10186522;28;20070;-55
2022/03/21 06:31:02;;;;;;;44.58;26.60;;;;;;;;;;10181052;28;20499;-57
2022/03/21 06:36:02;;;;;;;39.78;27.10;;;;;;;;;;10185407;28;20492;-55
2022/03/21 06:41:03;;;;;;;53.53;41.30;;;;;;;;;;10185989;28;20077;-54
2022/03/21 06:46:01;;;;;;;93.97;82.63;;;;;;;;;;10188104;28;20150;-56
2022/03/21 06:51:00;;;;;;;52.63;35.13;;;;;;;;;;10190412;28;20522;-54
2022/03/21 06:55:58;;;;;;;53.97;33.25;;;;;;;;;;10192639;28;20066;-53
2022/03/21 07:00:58;;;;;;;57.08;39.78;;;;;;;;;;10192061;28;20070;-54
2022/03/21 07:05:56;;;;;;;34.40;22.05;;;;;;;;;;10192470;28;20052;-55
2022/03/21 07:11:00;;;;;;;104.70;65.47;;;;;;;;;;10192725;28;20088;-54
2022/03/21 07:15:59;;;;;;;68.15;47.33;;;;;;;;;;10189238;28;20119;-54
2022/03/21 07:20:58;;;;;;;33.15;23.77;;;;;;;;;;10190106;28;20472;-54
2022/03/21 07:25:56;;;;;;;55.17;40.72;;;;;;;;;;10196532;28;20072;-55
2022/03/21 07:30:54;;;;;;;34.92;21.45;;;;;;;;;;10195879;28;20069;-56
2022/03/21 07:35:54;;;;;;;32.40;22.13;;;;;;;;;;10195831;28;20541;-52
2022/03/21 07:40:53;;;;;;;32.30;20.73;;;;;;;;;;10194231;28;20086;-56
2022/03/21 07:51:08;;;;;;;38.88;25.60;;;;;;;;;;10198889;28;20065;-56
2022/03/21 07:56:06;;;;;;;28.02;20.73;;;;;;;;;;10198194;28;20050;-54
2022/03/21 08:01:06;;;;;;;31.60;21.23;;;;;;;;;;10198373;28;20120;-55
2022/03/21 08:06:08;;;;;;;32.50;20.80;;;;;;;;;;10187353;28;20068;-50
2022/03/21 08:11:09;;;;;;;27.40;19.13;;;;;;;;;;10187988;28;20566;-52
2022/03/21 08:16:07;;;;;;;24.08;18.73;;;;;;;;;;10188359;28;20069;-55
2022/03/21 08:21:05;;;;;;;41.97;22.67;;;;;;;;;;10188226;28;20521;-53
2022/03/21 08:26:04;;;;;;;27.00;20.42;;;;;;;;;;10193992;28;20100;-55
2022/03/21 08:31:03;;;;;;;36.38;18.13;;;;;;;;;;10195322;28;20097;-51
2022/03/21 08:36:02;;;;;;;25.88;17.92;;;;;;;;;;10196092;28;20070;-55
2022/03/21 08:41:00;;;;;;;27.42;19.55;;;;;;;;;;10197459;28;20077;-52
2022/03/21 08:45:59;;;;;;;25.05;17.95;;;;;;;;;;10197364;28;20070;-55
2022/03/21 08:50:58;;;;;;;25.38;18.83;;;;;;;;;;10197233;28;20080;-56
2022/03/21 08:55:57;;;;;;;21.80;16.48;;;;;;;;;;10196674;28;20084;-55
2022/03/21 09:00:55;;;;;;;26.63;19.63;;;;;;;;;;10192989;28;20077;-55
2022/03/21 09:05:53;;;;;;;19.77;15.15;;;;;;;;;;10191697;28;20101;-55
2022/03/21 09:10:53;;;;;;;26.73;17.85;;;;;;;;;;10193759;28;20076;-55
2022/03/21 09:15:51;;;;;;;24.13;16.98;;;;;;;;;;10191679;28;20076;-56
2022/03/21 09:20:49;;;;;;;26.38;16.88;;;;;;;;;;10192386;28;20049;-55
2022/03/21 09:25:55;;;;;;;17.40;12.75;;;;;;;;;;10194829;28;20050;-55
2022/03/21 09:30:53;;;;;;;22.23;14.48;;;;;;;;;;10195623;28;20506;-54
2022/03/21 09:35:51;;;;;;;24.85;16.98;;;;;;;;;;10195275;28;20081;-55
2022/03/21 09:40:50;;;;;;;20.80;16.50;;;;;;;;;;10193019;28;20555;-56
2022/03/21 09:45:49;;;;;;;19.90;16.65;;;;;;;;;;10189206;28;20061;-55
2022/03/21 09:50:52;;;;;;;25.50;17.75;;;;;;;;;;10190203;28;20058;-56
2022/03/21 09:55:50;;;;;;;18.88;14.75;;;;;;;;;;10192571;28;20085;-54
2022/03/21 10:00:50;;;;;;;20.77;16.17;;;;;;;;;;10192365;28;20046;-56
2022/03/21 10:05:50;;;;;;;22.85;16.00;;;;;;;;;;10190416;28;20069;-56
2022/03/21 10:10:58;;;;;;;21.35;13.68;;;;;;;;;;10190238;28;20073;-54
2022/03/21 10:16:09;;;;;;;18.85;13.15;;;;;;;;;;10193185;28;20531;-53
2022/03/21 10:21:11;;;;;;;15.30;13.10;;;;;;;;;;10192778;28;20081;-55
2022/03/21 10:26:26;;;;;;;19.63;11.90;;;;;;;;;;10189032;28;20077;-55
2022/03/21 10:31:25;;;;;;;;;;;;;;;;;;10186131;28;20141;-55
2022/03/21 10:36:25;;;;;;;17.08;11.73;;;;;;;;;;10187474;28;19949;-54
2022/03/21 10:41:33;;;;;;;13.48;12.00;;;;;;;;;;10192737;28;20080;-55
2022/03/21 10:46:31;;;;;;;15.00;10.25;;;;;;;;;;10192772;28;20079;-56
2022/03/21 10:51:45;;;;;;;19.40;12.55;;;;;;;;;;10192822;28;20080;-54
2022/03/21 10:56:44;;;;;;;45.03;25.45;;;;;;;;;;10191925;28;20586;-55
2022/03/21 11:01:43;;;;;;;14.35;12.23;;;;;;;;;;10191870;28;20073;-55
2022/03/21 11:06:41;;;;;;;14.88;11.35;;;;;;;;;;10189041;28;20078;-53
2022/03/21 11:11:39;;;;;;;15.32;11.60;;;;;;;;;;10191341;28;20073;-54
2022/03/21 11:16:39;;;;;;;14.57;10.73;;;;;;;;;;10192265;28;20080;-56
2022/03/21 11:21:38;;;;;;;15.05;11.68;;;;;;;;;;10192231;28;20518;-56
2022/03/21 11:26:48;;;;;;;19.67;12.15;;;;;;;;;;10186844;28;20100;-56
2022/03/21 11:31:57;;;;;;;15.70;11.35;;;;;;;;;;10188755;28;20525;-55
2022/03/21 11:36:57;;;;;;;16.80;10.40;;;;;;;;;;10186022;28;20088;-55
2022/03/21 11:41:59;;;;;;;12.23;9.95;;;;;;;;;;10190883;28;20062;-56
2022/03/21 11:47:13;;;;;;;14.80;9.50;;;;;;;;;;10192049;28;20088;-56
2022/03/21 11:52:12;;;;;;;10.77;8.82;;;;;;;;;;10184509;28;20074;-55
2022/03/21 11:57:12;;;;;;;17.75;13.25;;;;;;;;;;10191173;28;20088;-56
2022/03/21 12:02:25;;;;;;;13.07;9.38;;;;;;;;;;10190541;28;20080;-55
2022/03/21 12:07:29;;;;;;;9.45;8.45;;;;;;;;;;10188945;28;20085;-50
2022/03/21 12:12:53;;;;;;;15.85;10.30;;;;;;;;;;10195275;28;20456;-55
2022/03/21 12:17:52;;;;;;;14.23;8.88;;;;;;;;;;10197650;28;20081;-56
2022/03/21 12:23:00;;;;;;;26.02;18.15;;;;;;;;;;10197388;28;20073;-51
2022/03/21 12:27:59;;;;;;;18.30;12.02;;;;;;;;;;10193010;28;20069;-52
2022/03/21 12:32:58;;;;;;;9.90;8.48;;;;;;;;;;10193606;28;20050;-56
2022/03/21 12:38:03;;;;;;;13.25;7.22;;;;;;;;;;10196740;28;20084;-56
2022/03/21 12:43:01;;;;;;;15.20;8.27;;;;;;;;;;10196494;28;20327;-51
2022/03/21 12:48:00;;;;;;;13.57;10.82;;;;;;;;;;10197148;28;20464;-51
2022/03/21 12:53:00;;;;;;;14.10;10.40;;;;;;;;;;10196224;28;20042;-56
2022/03/21 12:58:01;;;;;;;17.33;12.52;;;;;;;;;;10196561;28;20487;-55
2022/03/21 13:03:04;;;;;;;13.90;8.43;;;;;;;;;;10196211;28;20081;-53
2022/03/21 13:13:19;;;;;;;16.02;9.65;;;;;;;;;;10195510;28;20069;-56
2022/03/21 13:18:17;;;;;;;14.80;11.70;;;;;;;;;;10194329;28;20041;-57
2022/03/21 13:23:18;;;;;;;27.92;13.68;;;;;;;;;;10190336;28;20049;-55
2022/03/21 13:28:19;;;;;;;16.08;12.35;;;;;;;;;;10195046;28;20078;-56
2022/03/21 13:33:22;;;;;;;22.63;13.68;;;;;;;;;;10194721;28;20049;-56
2022/03/21 13:38:24;;;;;;;17.88;12.50;;;;;;;;;;10194703;28;20076;-56
2022/03/21 13:43:28;;;;;;;35.85;21.60;;;;;;;;;;10194438;28;20136;-56
2022/03/21 13:48:39;;;;;;;24.45;14.35;;;;;;;;;;10188343;28;20041;-55
2022/03/21 13:53:40;;;;;;;16.80;10.77;;;;;;;;;;10193995;28;20096;-57
2022/03/21 13:58:38;;;;;;;18.33;12.65;;;;;;;;;;10194342;28;20073;-57
2022/03/21 14:03:39;;;;;;;18.52;11.13;;;;;;;;;;10193788;28;20077;-58
2022/03/21 14:08:38;;;;;;;15.57;9.50;;;;;;;;;;10190158;28;20137;-56
2022/03/21 14:13:37;;;;;;;12.98;8.55;;;;;;;;;;10193459;28;20094;-58
2022/03/21 14:18:36;;;;;;;12.43;10.45;;;;;;;;;;10193273;28;20073;-57
2022/03/21 14:23:36;;;;;;;16.52;11.65;;;;;;;;;;10189565;28;20069;-58
2022/03/21 14:28:35;;;;;;;17.95;10.77;;;;;;;;;;10193360;28;20422;-58
2022/03/21 14:33:35;;;;;;;15.27;10.35;;;;;;;;;;10186475;28;20477;-58
2022/03/21 14:38:33;;;;;;;15.27;10.52;;;;;;;;;;10187737;28;20537;-58
2022/03/21 14:43:39;;;;;;;20.15;13.90;;;;;;;;;;10192617;28;20081;-59
2022/03/21 14:48:37;;;;;;;10.88;8.55;;;;;;;;;;10192455;28;20042;-57
2022/03/21 14:53:36;;;;;;;13.23;9.52;;;;;;;;;;10192010;28;20475;-58
2022/03/21 14:58:36;;;;;;;10.93;8.70;;;;;;;;;;10186730;28;20543;-58
2022/03/21 15:03:36;;;;;;;12.80;10.45;;;;;;;;;;10191746;28;20092;-58
2022/03/21 15:08:35;;;;;;;14.90;10.45;;;;;;;;;;10185811;28;20073;-56
2022/03/21 15:13:33;;;;;;;19.52;11.32;;;;;;;;;;10192335;28;20084;-58
2022/03/21 15:18:32;;;;;;;32.63;18.20;;;;;;;;;;10188578;28;20088;-58
2022/03/21 15:23:34;;;;;;;24.05;13.07;;;;;;;;;;10187047;28;20065;-57
2022/03/21 15:28:33;;;;;;;25.17;13.18;;;;;;;;;;10187297;28;20073;-57
2022/03/21 15:33:31;;;;;;;18.27;10.13;;;;;;;;;;10187259;28;20077;-58
2022/03/21 15:43:47;;;;;;;23.55;12.63;;;;;;;;;;10190745;28;20065;-57
2022/03/21 15:48:46;;;;;;;26.70;18.75;;;;;;;;;;10198609;28;20491;-58
2022/03/21 15:53:44;;;;;;;47.55;28.08;;;;;;;;;;10198979;28;20085;-58
2022/03/21 15:58:43;;;;;;;36.63;25.55;;;;;;;;;;10198263;28;20073;-57
2022/03/21 16:03:42;;;;;;;29.77;20.35;;;;;;;;;;10198476;28;20497;-58
2022/03/21 16:08:41;;;;;;;32.15;17.70;;;;;;;;;;10194153;28;20062;-58
2022/03/21 16:13:40;;;;;;;36.15;20.10;;;;;;;;;;10194864;28;20115;-58
2022/03/21 16:18:39;;;;;;;31.65;16.67;;;;;;;;;;10192934;28;20501;-59
2022/03/21 16:23:39;;;;;;;36.65;22.65;;;;;;;;;;10188003;28;20443;-57
2022/03/21 16:28:39;;;;;;;34.25;21.10;;;;;;;;;;10197387;28;20081;-58
2022/03/21 16:33:37;;;;;;;25.23;17.35;;;;;;;;;;10192089;28;20057;-57
2022/03/21 16:38:36;;;;;;;34.90;22.50;;;;;;;;;;10196953;28;20081;-60
2022/03/21 16:43:36;;;;;;;40.17;24.38;;;;;;;;;;10193340;28;20090;-57
2022/03/21 16:48:37;;;;;;;60.25;36.17;;;;;;;;;;10191982;28;20481;-60
2022/03/21 16:53:36;;;;;;;86.75;47.63;;;;;;;;;;10184984;28;20078;-59
2022/03/21 16:58:35;;;;;;;38.80;25.95;;;;;;;;;;10190260;28;20081;-58
2022/03/21 17:03:34;;;;;;;35.10;23.92;;;;;;;;;;10192630;28;20073;-59
2022/03/21 17:08:32;;;;;;;35.65;24.05;;;;;;;;;;10195129;28;20066;-58
2022/03/21 17:13:31;;;;;;;61.63;39.33;;;;;;;;;;10195812;28;20076;-58
2022/03/21 17:23:47;;;;;;;63.08;35.13;;;;;;;;;;10195125;28;20510;-59
2022/03/21 17:28:58;;;;;;;59.58;38.30;;;;;;;;;;10195074;28;20449;-58
2022/03/21 17:33:58;;;;;;;72.05;41.03;;;;;;;;;;10190023;28;20624;-59
2022/03/21 17:38:56;;;;;;;108.05;59.42;;;;;;;;;;10194801;28;20080;-58
2022/03/21 17:43:54;;;;;;;98.43;56.53;;;;;;;;;;10194630;28;20517;-58
2022/03/21 17:48:53;;;;;;;72.88;46.53;;;;;;;;;;10178854;28;20070;-57
2022/03/21 17:53:52;;;;;;;65.90;43.42;;;;;;;;;;10190222;28;20474;-57
2022/03/21 17:58:52;;;;;;;46.40;25.23;;;;;;;;;;10169113;28;20074;-56
2022/03/21 18:03:51;;;;;;;35.85;23.25;;;;;;;;;;10164243;28;20077;-58
2022/03/21 18:08:51;;;;;;;34.05;21.30;;;;;;;;;;10185057;28;20089;-57
2022/03/21 18:13:52;;;;;;;27.58;16.98;;;;;;;;;;10189989;28;20096;-56
2022/03/21 18:18:51;;;;;;;28.17;20.85;;;;;;;;;;10172361;28;20074;-58
2022/03/21 18:23:50;;;;;;;15.93;11.27;;;;;;;;;;10174371;28;20069;-57
2022/03/21 18:28:48;;;;;;;11.05;8.65;;;;;;;;;;10180477;28;20081;-56
2022/03/21 18:33:48;;;;;;;18.02;12.18;;;;;;;;;;10169464;28;20498;-58
2022/03/21 18:38:46;;;;;;;28.73;18.00;;;;;;;;;;10172865;28;20487;-56
2022/03/21 18:43:45;;;;;;;46.70;28.10;;;;;;;;;;10171878;28;20062;-59
2022/03/21 18:48:44;;;;;;;34.33;22.45;;;;;;;;;;10169823;28;20526;-58
2022/03/21 18:53:43;;;;;;;27.05;17.00;;;;;;;;;;10172468;28;20526;-58
2022/03/21 18:58:42;;;;;;;80.82;44.15;;;;;;;;;;10173361;28;20096;-55
2022/03/21 19:03:41;;;;;;;87.25;47.83;;;;;;;;;;10164575;28;20479;-57
2022/03/21 19:08:39;;;;;;;120.57;74.88;;;;;;;;;;10180215;28;20073;-56
2022/03/21 19:13:39;;;;;;;115.53;67.85;;;;;;;;;;10162618;28;20069;-58
2022/03/21 19:18:40;;;;;;;131.35;72.43;;;;;;;;;;10162494;28;20097;-58
2022/03/21 19:23:38;;;;;;;109.78;67.43;;;;;;;;;;10170653;28;20070;-58
2022/03/21 19:28:37;;;;;;;95.13;56.60;;;;;;;;;;10179136;28;20065;-58
2022/03/21 19:33:36;;;;;;;98.53;54.88;;;;;;;;;;10177492;28;20074;-58
2022/03/21 19:38:35;;;;;;;100.68;58.45;;;;;;;;;;10174131;28;20069;-55
2022/03/21 19:43:34;;;;;;;70.78;46.50;;;;;;;;;;10168975;28;20068;-57
2022/03/21 19:48:33;;;;;;;57.58;38.00;;;;;;;;;;10167937;28;20589;-58
2022/03/21 19:53:32;;;;;;;62.58;41.92;;;;;;;;;;10184814;28;20054;-58
2022/03/21 19:58:33;;;;;;;51.42;33.85;;;;;;;;;;10179180;28;20081;-58
2022/03/21 20:03:31;;;;;;;46.40;31.50;;;;;;;;;;10186208;28;20070;-58
2022/03/21 20:08:29;;;;;;;39.70;27.35;;;;;;;;;;10191802;28;20074;-58
2022/03/21 20:13:29;;;;;;;48.92;31.83;;;;;;;;;;10172080;28;20074;-57
2022/03/21 20:18:27;;;;;;;33.60;23.35;;;;;;;;;;10171521;28;20069;-58
2022/03/21 20:23:26;;;;;;;32.17;25.02;;;;;;;;;;10165990;28;20073;-57
2022/03/21 20:28:24;;;;;;;30.52;19.73;;;;;;;;;;10187558;28;20062;-58
2022/03/21 20:33:24;;;;;;;32.13;20.58;;;;;;;;;;10193895;28;20080;-59
2022/03/21 20:38:22;;;;;;;51.33;31.13;;;;;;;;;;10196502;28;20078;-58
2022/03/21 20:43:21;;;;;;;43.08;25.75;;;;;;;;;;10187699;28;20065;-59
2022/03/21 20:48:19;;;;;;;28.08;19.42;;;;;;;;;;10178185;28;20077;-58
2022/03/21 20:53:19;;;;;;;17.80;14.30;;;;;;;;;;10182398;28;20525;-59
2022/03/21 20:58:17;;;;;;;35.10;22.10;;;;;;;;;;10176327;28;20486;-59
2022/03/21 21:03:18;;;;;;;30.48;20.60;;;;;;;;;;10173292;28;20515;-58
2022/03/21 21:08:18;;;;;;;61.75;34.08;;;;;;;;;;10165292;28;20073;-58
2022/03/21 21:13:18;;;;;;;38.03;25.50;;;;;;;;;;10162340;28;20065;-57
2022/03/21 21:18:18;;;;;;;22.73;14.60;;;;;;;;;;10169759;28;20682;-56
2022/03/21 21:23:19;;;;;;;39.30;23.25;;;;;;;;;;10168163;28;20076;-58
2022/03/21 21:28:19;;;;;;;166.95;81.43;;;;;;;;;;10165059;28;20076;-56
2022/03/21 21:33:17;;;;;;;56.80;35.15;;;;;;;;;;10161224;28;20077;-57
2022/03/21 21:38:16;;;;;;;79.95;43.00;;;;;;;;;;10159578;28;20077;-57
2022/03/21 21:43:15;;;;;;;115.40;61.42;;;;;;;;;;10157314;28;20062;-58
2022/03/21 21:48:17;;;;;;;53.90;29.75;;;;;;;;;;10166938;28;20515;-58
2022/03/21 21:53:16;;;;;;;22.58;16.80;;;;;;;;;;10158887;28;20093;-55
2022/03/21 21:58:14;;;;;;;19.30;13.15;;;;;;;;;;10176931;28;20084;-59
2022/03/21 22:03:12;;;;;;;19.80;13.40;;;;;;;;;;10177562;28;20069;-58
2022/03/21 22:08:14;;;;;;;26.73;19.90;;;;;;;;;;10189017;28;20081;-58
2022/03/21 22:13:14;;;;;;;12.45;10.43;;;;;;;;;;10193974;28;20507;-58
2022/03/21 22:18:13;;;;;;;23.35;15.25;;;;;;;;;;10193467;28;20081;-58
2022/03/21 22:23:16;;;;;;;18.42;13.30;;;;;;;;;;10176582;28;20070;-57
2022/03/21 22:28:14;;;;;;;12.43;9.40;;;;;;;;;;10164221;28;20073;-58
2022/03/21 22:33:13;;;;;;;13.23;9.48;;;;;;;;;;10160461;28;20065;-54
2022/03/21 22:38:11;;;;;;;59.10;37.13;;;;;;;;;;10173610;28;20495;-57
2022/03/21 22:48:27;;;;;;;18.98;12.60;;;;;;;;;;10190336;28;20081;-57
2022/03/21 22:53:25;;;;;;;23.92;13.93;;;;;;;;;;10185495;28;20444;-58
2022/03/21 22:58:25;;;;;;;41.22;22.20;;;;;;;;;;10190092;28;20508;-57
2022/03/21 23:03:23;;;;;;;15.27;10.30;;;;;;;;;;10192323;28;20058;-58
2022/03/21 23:08:22;;;;;;;12.82;9.77;;;;;;;;;;10192303;28;20069;-58
2022/03/21 23:13:20;;;;;;;13.70;10.10;;;;;;;;;;10192099;28;20070;-58
2022/03/21 23:18:20;;;;;;;16.92;9.30;;;;;;;;;;10181649;28;20069;-58
2022/03/21 23:23:20;;;;;;;26.08;15.35;;;;;;;;;;10192353;28;20085;-58
2022/03/21 23:28:20;;;;;;;25.88;13.48;;;;;;;;;;10191848;28;20077;-59
2022/03/21 23:33:20;;;;;;;31.80;16.88;;;;;;;;;;10191743;28;20479;-58
2022/03/21 23:38:20;;;;;;;40.33;20.27;;;;;;;;;;10192118;28;20538;-58
2022/03/21 23:43:20;;;;;;;29.92;17.50;;;;;;;;;;10192239;28;20460;-59
2022/03/21 23:48:20;;;;;;;29.05;15.30;;;;;;;;;;10191694;28;20077;-59
2022/03/21 23:53:18;;;;;;;26.73;15.88;;;;;;;;;;10191447;28;20073;-59
2022/03/21 23:58:16;;;;;;;23.55;15.40;;;;;;;;;;10186878;28;20538;-56
